Time;durP1;ratioP1;P1;durP2;ratioP2;P2;SDS_P1;SDS_P2;PMS_P1;PMS_P2;Temp;Humidity;BMP_temperature;BMP_pressure;BME280_temperature;BME280_humidity;BME280_pressure;Samples;Min_cycle;Max_cycle;Signal;HPM_P1;HPM_P2
2024/03/27 00:00:28;;;;;;;0.30;0.30;;;15.80;74.00;;;;;;5004344;28;20634;-74
2024/03/27 00:02:54;;;;;;;0.47;0.47;;;15.90;75.10;;;;;;4999671;28;20061;-75
2024/03/27 00:05:20;;;;;;;0.40;0.40;;;15.80;73.40;;;;;;5009116;28;20034;-75
2024/03/27 00:07:46;;;;;;;0.40;0.40;;;15.80;73.50;;;;;;4983015;28;20030;-75
2024/03/27 00:10:13;;;;;;;0.40;0.40;;;15.80;73.70;;;;;;5034894;28;20045;-75
2024/03/27 00:12:39;;;;;;;0.50;0.50;;;15.80;73.60;;;;;;5019757;28;20667;-76
2024/03/27 00:15:05;;;;;;;0.40;0.40;;;15.80;73.80;;;;;;5017402;28;20064;-75
2024/03/27 00:17:30;;;;;;;0.40;0.40;;;15.80;74.20;;;;;;5014528;28;20037;-75
2024/03/27 00:19:56;;;;;;;0.40;0.40;;;15.80;74.00;;;;;;5016479;28;20472;-75
2024/03/27 00:22:22;;;;;;;0.30;0.30;;;15.80;73.80;;;;;;5018615;28;20029;-74
2024/03/27 00:24:48;;;;;;;0.35;0.35;;;15.80;73.90;;;;;;5001849;28;20037;-75
2024/03/27 00:27:13;;;;;;;0.50;0.50;;;15.80;74.00;;;;;;5013557;28;20419;-75
2024/03/27 00:29:39;;;;;;;0.60;0.60;;;15.80;74.10;;;;;;4997942;28;20049;-75
2024/03/27 00:32:05;;;;;;;0.45;0.45;;;15.80;74.40;;;;;;4988933;28;20038;-75
2024/03/27 00:34:31;;;;;;;0.50;0.50;;;15.80;73.60;;;;;;4997382;28;20046;-75
2024/03/27 00:36:59;;;;;;;0.40;0.40;;;15.80;73.20;;;;;;4995280;28;20045;-75
2024/03/27 00:39:25;;;;;;;0.50;0.50;;;15.80;73.50;;;;;;4995030;28;20072;-75
2024/03/27 00:41:51;;;;;;;0.40;0.40;;;15.80;73.70;;;;;;5028388;28;20044;-75
2024/03/27 00:44:16;;;;;;;0.20;0.20;;;15.80;73.30;;;;;;4969299;28;20061;-75
2024/03/27 00:46:42;;;;;;;0.50;0.50;;;15.80;73.40;;;;;;4973836;28;20041;-75
2024/03/27 00:49:07;;;;;;;0.38;0.38;;;15.80;73.30;;;;;;5001833;28;20054;-75
2024/03/27 00:51:33;;;;;;;0.65;0.65;;;15.80;73.20;;;;;;5019342;28;20044;-75
2024/03/27 00:53:59;;;;;;;0.40;0.40;;;15.70;73.10;;;;;;5002405;28;20053;-75
2024/03/27 00:56:26;;;;;;;0.30;0.30;;;15.70;73.50;;;;;;4986700;28;20044;-75
2024/03/27 00:58:52;;;;;;;0.40;0.40;;;15.80;73.70;;;;;;5002225;28;20041;-75
2024/03/27 01:01:18;;;;;;;0.55;0.40;;;15.80;73.90;;;;;;5006114;28;20043;-75
2024/03/27 01:03:44;;;;;;;0.40;0.40;;;15.80;74.50;;;;;;5012447;28;20060;-75
2024/03/27 01:06:09;;;;;;;0.47;0.47;;;15.80;74.60;;;;;;5014397;28;20502;-75
2024/03/27 01:08:35;;;;;;;0.30;0.30;;;15.70;74.40;;;;;;4987304;28;20119;-77
2024/03/27 01:11:01;;;;;;;0.38;0.38;;;15.80;75.00;;;;;;5029441;28;20037;-77
2024/03/27 01:13:26;;;;;;;0.45;0.45;;;15.70;74.70;;;;;;5029727;28;20474;-76
2024/03/27 01:15:52;;;;;;;0.40;0.30;;;15.70;74.00;;;;;;5028320;28;20041;-76
2024/03/27 01:18:18;;;;;;;0.35;0.35;;;15.80;74.50;;;;;;5033518;28;20425;-77
2024/03/27 01:20:44;;;;;;;0.38;0.38;;;15.70;74.50;;;;;;5009907;28;20033;-77
2024/03/27 01:23:10;;;;;;;0.40;0.40;;;15.70;74.40;;;;;;4997547;28;20223;-77
2024/03/27 01:25:36;;;;;;;0.30;0.30;;;15.70;74.70;;;;;;5037907;28;20045;-77
2024/03/27 01:28:03;;;;;;;0.30;0.30;;;15.70;75.70;;;;;;5015185;28;20499;-76
2024/03/27 01:30:28;;;;;;;0.50;0.47;;;15.70;74.70;;;;;;5039989;28;20037;-77
2024/03/27 01:32:54;;;;;;;0.32;0.32;;;15.70;74.80;;;;;;5017605;28;20099;-77
2024/03/27 01:35:19;;;;;;;0.30;0.30;;;15.70;75.10;;;;;;5021361;28;20095;-77
2024/03/27 01:37:45;;;;;;;0.20;0.20;;;15.70;74.90;;;;;;5030330;28;20037;-77
2024/03/27 01:40:11;;;;;;;0.40;0.40;;;15.70;74.80;;;;;;4994772;28;20422;-77
2024/03/27 01:42:36;;;;;;;0.40;0.40;;;15.80;74.80;;;;;;5008197;28;20132;-77
2024/03/27 01:45:02;;;;;;;0.30;0.30;;;15.70;74.60;;;;;;5028563;28;20052;-77
2024/03/27 01:47:28;;;;;;;0.40;0.40;;;15.80;74.40;;;;;;5013623;28;20038;-77
2024/03/27 01:49:54;;;;;;;0.57;0.57;;;15.80;74.80;;;;;;4995476;28;20053;-77
2024/03/27 01:52:19;;;;;;;0.30;0.30;;;15.70;74.70;;;;;;5007122;28;20041;-77
2024/03/27 01:54:46;;;;;;;0.40;0.40;;;15.70;74.50;;;;;;5001530;28;20069;-77
2024/03/27 01:57:12;;;;;;;0.40;0.40;;;15.80;75.10;;;;;;5011979;28;21469;-77
2024/03/27 01:59:37;;;;;;;0.30;0.30;;;15.70;74.40;;;;;;4983978;28;20045;-77
2024/03/27 02:02:03;;;;;;;0.38;0.38;;;15.70;74.50;;;;;;5002713;28;20828;-77
2024/03/27 02:04:28;;;;;;;0.20;0.20;;;15.70;74.40;;;;;;5008036;28;20045;-77
2024/03/27 02:06:54;;;;;;;0.30;0.30;;;15.70;74.40;;;;;;5004078;28;20038;-77
2024/03/27 02:09:20;;;;;;;0.43;0.43;;;15.70;74.90;;;;;;5007717;28;20049;-77
2024/03/27 02:11:46;;;;;;;0.40;0.40;;;15.70;74.40;;;;;;4996825;28;20053;-77
2024/03/27 02:14:14;;;;;;;0.43;0.43;;;15.70;74.40;;;;;;4993519;28;20399;-77
2024/03/27 02:16:40;;;;;;;0.20;0.20;;;15.70;74.20;;;;;;5007085;28;20053;-77
2024/03/27 02:19:05;;;;;;;0.20;0.20;;;15.70;74.10;;;;;;5026499;28;20050;-77
2024/03/27 02:21:31;;;;;;;0.50;0.50;;;15.70;74.30;;;;;;5030334;28;20068;-77
2024/03/27 02:24:05;;;;;;;0.30;0.30;;;15.70;74.50;;;;;;4992323;28;20730;-77
2024/03/27 02:26:34;;;;;;;0.40;0.40;;;15.70;74.30;;;;;;5007981;28;20037;-77
2024/03/27 02:29:00;;;;;;;0.32;0.32;;;15.70;74.20;;;;;;5014012;28;20033;-77
2024/03/27 02:31:25;;;;;;;0.40;0.40;;;15.70;74.00;;;;;;5035463;28;20042;-77
2024/03/27 02:33:51;;;;;;;0.30;0.30;;;15.70;73.80;;;;;;5026542;28;20447;-77
2024/03/27 02:36:16;;;;;;;0.30;0.30;;;15.70;74.00;;;;;;5029621;28;20064;-76
2024/03/27 02:38:42;;;;;;;0.30;0.30;;;15.70;74.00;;;;;;5018278;28;20117;-77
2024/03/27 02:41:07;;;;;;;0.30;0.30;;;15.70;74.20;;;;;;5017032;28;20049;-77
2024/03/27 02:43:33;;;;;;;0.30;0.30;;;15.70;74.30;;;;;;5023377;28;20048;-76
2024/03/27 02:45:59;;;;;;;0.45;0.40;;;15.70;74.00;;;;;;5023935;28;20037;-77
2024/03/27 02:48:24;;;;;;;0.30;0.30;;;15.70;74.40;;;;;;5016376;28;20068;-76
2024/03/27 02:50:50;;;;;;;0.43;0.43;;;15.70;74.40;;;;;;5029527;28;20102;-77
2024/03/27 02:53:15;;;;;;;0.40;0.40;;;15.70;74.80;;;;;;5022335;28;20511;-77
2024/03/27 02:55:41;;;;;;;0.30;0.30;;;15.60;74.60;;;;;;5026065;28;20033;-76
2024/03/27 02:58:06;;;;;;;0.40;0.40;;;15.70;74.70;;;;;;5002323;28;20521;-77
2024/03/27 03:00:32;;;;;;;0.50;0.30;;;15.70;74.40;;;;;;5008779;28;20045;-76
2024/03/27 03:02:58;;;;;;;0.30;0.30;;;15.70;74.50;;;;;;4996338;28;20510;-77
2024/03/27 03:05:23;;;;;;;0.65;0.65;;;15.70;75.50;;;;;;5015687;28;20037;-77
2024/03/27 03:07:49;;;;;;;0.30;0.30;;;15.60;75.30;;;;;;5013983;28;20651;-77
2024/03/27 03:10:14;;;;;;;0.30;0.30;;;15.70;76.40;;;;;;5020261;28;20034;-77
2024/03/27 03:12:40;;;;;;;0.40;0.40;;;15.60;76.80;;;;;;5025264;28;20033;-76
2024/03/27 03:15:06;;;;;;;0.30;0.30;;;15.70;77.20;;;;;;5019274;28;20551;-76
2024/03/27 03:17:31;;;;;;;0.20;0.20;;;15.60;77.10;;;;;;5010685;28;20046;-77
2024/03/27 03:19:57;;;;;;;0.50;0.50;;;15.60;79.60;;;;;;5020688;28;20042;-77
2024/03/27 03:22:22;;;;;;;0.30;0.30;;;15.60;92.00;;;;;;5027631;28;20132;-77
2024/03/27 03:24:49;;;;;;;0.40;0.40;;;15.60;93.10;;;;;;5028046;28;20045;-77
2024/03/27 03:27:15;;;;;;;0.40;0.40;;;15.60;91.80;;;;;;5029751;28;20085;-77
2024/03/27 03:29:41;;;;;;;0.30;0.30;;;15.60;90.70;;;;;;5026374;28;20080;-77
2024/03/27 03:32:07;;;;;;;0.30;0.30;;;15.60;90.30;;;;;;5025328;28;21451;-77
2024/03/27 03:34:32;;;;;;;0.20;0.20;;;15.60;89.10;;;;;;5011981;28;20111;-76
2024/03/27 03:36:58;;;;;;;0.30;0.30;;;15.60;87.50;;;;;;5026088;28;20041;-77
2024/03/27 03:39:23;;;;;;;0.38;0.30;;;15.60;87.30;;;;;;5026856;28;20060;-77
2024/03/27 03:41:49;;;;;;;0.43;0.43;;;15.60;87.30;;;;;;4999647;28;20084;-76
2024/03/27 03:44:14;;;;;;;0.80;0.30;;;15.60;86.80;;;;;;5023147;28;20041;-77
2024/03/27 03:46:40;;;;;;;0.20;0.20;;;15.60;87.30;;;;;;5023350;28;20041;-77
2024/03/27 03:49:05;;;;;;;0.25;0.25;;;15.60;86.90;;;;;;5022603;28;20045;-77
2024/03/27 03:51:31;;;;;;;0.40;0.40;;;15.60;87.30;;;;;;5015813;28;20038;-77
2024/03/27 03:53:57;;;;;;;0.40;0.40;;;15.60;87.90;;;;;;5011053;28;20589;-77
2024/03/27 03:56:22;;;;;;;0.30;0.30;;;15.60;87.10;;;;;;5026545;28;20041;-77
2024/03/27 03:58:48;;;;;;;0.38;0.30;;;15.60;83.60;;;;;;5016611;28;20036;-77
2024/03/27 04:01:13;;;;;;;0.20;0.20;;;15.60;83.40;;;;;;5022072;28;20140;-77
2024/03/27 04:03:39;;;;;;;0.30;0.30;;;15.60;83.90;;;;;;5028649;28;20041;-77
2024/03/27 04:06:05;;;;;;;0.30;0.30;;;15.60;84.80;;;;;;5026473;28;20503;-76
2024/03/27 04:08:31;;;;;;;0.30;0.30;;;15.60;84.80;;;;;;5025462;28;20041;-77
2024/03/27 04:10:56;;;;;;;0.20;0.20;;;15.50;84.70;;;;;;5025557;28;20053;-77
2024/03/27 04:13:23;;;;;;;0.22;0.22;;;15.60;85.00;;;;;;5033018;28;20399;-77
2024/03/27 04:15:48;;;;;;;0.20;0.20;;;15.60;85.10;;;;;;5034151;28;20033;-77
2024/03/27 04:18:14;;;;;;;0.28;0.28;;;15.60;85.70;;;;;;5027969;28;20519;-77
2024/03/27 04:20:40;;;;;;;0.25;0.25;;;15.50;85.80;;;;;;5030160;28;20044;-77
2024/03/27 04:23:06;;;;;;;0.20;0.20;;;15.50;86.10;;;;;;5014113;28;20037;-76
2024/03/27 04:25:31;;;;;;;0.22;0.22;;;15.50;82.00;;;;;;5029823;28;20467;-77
2024/03/27 04:27:57;;;;;;;0.30;0.30;;;15.50;77.80;;;;;;5030641;28;20091;-76
2024/03/27 04:30:22;;;;;;;0.30;0.30;;;15.60;77.10;;;;;;5029785;28;20084;-77
2024/03/27 04:32:48;;;;;;;0.22;0.22;;;15.50;75.40;;;;;;5027082;28;20532;-77
2024/03/27 04:35:14;;;;;;;0.40;0.40;;;15.60;74.00;;;;;;5031063;28;20038;-77
2024/03/27 04:37:40;;;;;;;0.10;0.10;;;15.50;73.40;;;;;;5017484;28;20041;-77
2024/03/27 04:40:12;;;;;;;1.75;0.40;;;15.50;72.70;;;;;;5012887;28;20057;-77
2024/03/27 04:42:38;;;;;;;0.20;0.20;;;15.50;71.80;;;;;;5031833;28;20176;-77
2024/03/27 04:45:04;;;;;;;0.28;0.28;;;15.50;71.60;;;;;;5016847;28;20050;-77
2024/03/27 04:47:31;;;;;;;0.20;0.20;;;15.50;71.70;;;;;;5008763;28;20108;-77
2024/03/27 04:49:56;;;;;;;0.20;0.20;;;15.40;70.10;;;;;;5011916;28;20454;-77
2024/03/27 04:52:22;;;;;;;0.30;0.30;;;15.40;69.20;;;;;;4992686;28;20545;-77
2024/03/27 04:54:48;;;;;;;0.20;0.20;;;15.40;69.00;;;;;;5010152;28;20046;-77
2024/03/27 04:57:13;;;;;;;0.20;0.20;;;15.40;69.00;;;;;;5012024;28;20049;-76
2024/03/27 04:59:39;;;;;;;0.32;0.28;;;15.40;69.00;;;;;;5010337;28;20057;-77
2024/03/27 05:02:05;;;;;;;0.20;0.20;;;15.40;69.00;;;;;;5010110;28;20041;-77
2024/03/27 05:04:32;;;;;;;0.20;0.20;;;15.40;68.80;;;;;;5016129;28;20052;-77
2024/03/27 05:06:57;;;;;;;0.20;0.20;;;15.40;68.80;;;;;;5014447;28;20049;-77
2024/03/27 05:09:23;;;;;;;0.22;0.22;;;15.40;68.80;;;;;;5000825;28;20529;-76
2024/03/27 05:11:48;;;;;;;0.40;0.40;;;15.40;69.00;;;;;;4993755;28;20061;-76
2024/03/27 05:14:14;;;;;;;0.30;0.30;;;15.40;68.90;;;;;;5021412;28;20068;-77
2024/03/27 05:16:40;;;;;;;0.30;0.30;;;15.30;69.00;;;;;;5014847;28;20030;-76
2024/03/27 05:19:05;;;;;;;0.20;0.20;;;15.40;68.90;;;;;;5019938;28;20041;-76
2024/03/27 05:21:32;;;;;;;0.30;0.30;;;15.30;68.70;;;;;;5021663;28;20042;-76
2024/03/27 05:23:57;;;;;;;0.30;0.30;;;15.30;68.80;;;;;;5020968;28;20052;-76
2024/03/27 05:26:23;;;;;;;0.25;0.25;;;15.40;69.10;;;;;;4981845;28;20035;-76
2024/03/27 05:28:49;;;;;;;0.20;0.20;;;15.40;68.80;;;;;;4984749;28;20033;-76
2024/03/27 05:31:14;;;;;;;0.20;0.20;;;15.30;68.80;;;;;;5012246;28;20518;-76
2024/03/27 05:33:40;;;;;;;0.20;0.20;;;15.30;68.80;;;;;;5019430;28;20101;-76
2024/03/27 05:36:07;;;;;;;0.20;0.20;;;15.30;69.00;;;;;;5017119;28;20037;-76
2024/03/27 05:38:32;;;;;;;0.20;0.20;;;15.30;69.00;;;;;;5017100;28;20045;-76
2024/03/27 05:40:58;;;;;;;0.20;0.20;;;15.40;69.20;;;;;;5001289;28;20037;-76
2024/03/27 05:43:23;;;;;;;0.20;0.20;;;15.30;69.00;;;;;;5022118;28;20092;-77
2024/03/27 05:45:49;;;;;;;0.17;0.17;;;15.30;69.30;;;;;;5019250;28;20041;-77
2024/03/27 05:48:15;;;;;;;0.10;0.10;;;15.30;69.30;;;;;;5020952;28;20046;-77
2024/03/27 05:50:40;;;;;;;0.20;0.20;;;15.30;69.90;;;;;;5020344;28;20527;-76
2024/03/27 05:53:07;;;;;;;0.10;0.10;;;15.40;69.90;;;;;;5017269;28;20088;-77
2024/03/27 05:55:33;;;;;;;0.38;0.38;;;15.40;69.60;;;;;;5020567;28;20038;-77
2024/03/27 05:57:59;;;;;;;0.20;0.20;;;15.40;69.50;;;;;;5017187;28;20052;-77
2024/03/27 06:00:24;;;;;;;0.22;0.22;;;15.30;69.40;;;;;;5005638;28;20076;-77
2024/03/27 06:02:51;;;;;;;0.20;0.20;;;15.30;69.60;;;;;;5019871;28;20050;-78
2024/03/27 06:05:17;;;;;;;0.10;0.10;;;15.30;69.00;;;;;;5016609;28;20036;-77
2024/03/27 06:07:42;;;;;;;0.30;0.30;;;15.30;69.00;;;;;;5017523;28;20037;-77
2024/03/27 06:10:08;;;;;;;0.20;0.20;;;15.30;68.90;;;;;;5014064;28;20038;-77
2024/03/27 06:12:34;;;;;;;0.20;0.20;;;15.30;68.80;;;;;;5016358;28;20060;-77
2024/03/27 06:14:59;;;;;;;0.30;0.30;;;15.30;68.60;;;;;;4990498;28;20046;-77
2024/03/27 06:17:25;;;;;;;0.10;0.10;;;15.30;68.80;;;;;;5013538;28;20041;-76
2024/03/27 06:19:50;;;;;;;0.20;0.20;;;15.30;68.70;;;;;;5019784;28;20045;-77
2024/03/27 06:22:16;;;;;;;0.20;0.20;;;15.30;68.60;;;;;;4995959;28;20049;-77
2024/03/27 06:24:41;;;;;;;0.20;0.20;;;15.30;68.80;;;;;;5016720;28;20121;-76
2024/03/27 06:27:07;;;;;;;0.40;0.30;;;15.30;68.90;;;;;;5018535;28;20056;-77
2024/03/27 06:29:33;;;;;;;0.57;0.13;;;15.30;69.30;;;;;;4981519;28;20643;-76
2024/03/27 06:31:58;;;;;;;0.10;0.10;;;15.30;69.00;;;;;;5016290;28;20037;-76
2024/03/27 06:34:24;;;;;;;0.20;0.10;;;15.30;69.00;;;;;;5017446;28;20479;-77
2024/03/27 06:36:49;;;;;;;0.20;0.20;;;15.30;68.50;;;;;;4999295;28;20041;-77
2024/03/27 06:39:15;;;;;;;0.20;0.20;;;15.30;68.50;;;;;;4994314;28;20056;-76
2024/03/27 06:41:42;;;;;;;0.17;0.13;;;15.30;68.80;;;;;;4981079;28;20121;-77
2024/03/27 06:44:08;;;;;;;0.20;0.20;;;15.30;68.80;;;;;;5018152;28;20431;-76
2024/03/27 06:46:37;;;;;;;0.30;0.30;;;15.30;68.90;;;;;;5010354;28;21312;-77
2024/03/27 06:49:18;;;;;;;0.17;0.17;;;15.30;68.60;;;;;;5011170;28;20061;-76
2024/03/27 06:51:50;;;;;;;0.28;0.28;;;15.30;68.60;;;;;;5014284;28;20440;-76
2024/03/27 06:54:15;;;;;;;0.20;0.20;;;15.30;68.50;;;;;;4995659;28;20064;-77
2024/03/27 06:56:41;;;;;;;0.10;0.10;;;15.30;68.60;;;;;;4998425;28;20411;-77
2024/03/27 06:59:07;;;;;;;0.20;0.20;;;15.30;69.30;;;;;;5018498;28;20042;-77
2024/03/27 07:01:32;;;;;;;0.32;0.20;;;15.30;69.30;;;;;;5001072;28;20038;-76
2024/03/27 07:03:58;;;;;;;0.28;0.28;;;15.30;69.40;;;;;;5014523;28;20046;-77
2024/03/27 07:06:23;;;;;;;0.20;0.20;;;15.30;69.50;;;;;;5001995;28;20037;-76
2024/03/27 07:08:49;;;;;;;0.30;0.30;;;15.40;69.80;;;;;;5012044;28;20058;-76
2024/03/27 07:11:15;;;;;;;0.20;0.20;;;15.30;69.10;;;;;;5015918;28;20049;-76
2024/03/27 07:13:40;;;;;;;0.20;0.20;;;15.30;69.10;;;;;;4992997;28;20069;-76
2024/03/27 07:16:06;;;;;;;0.20;0.20;;;15.30;68.90;;;;;;4999288;28;20049;-77
2024/03/27 07:18:31;;;;;;;0.10;0.10;;;15.30;69.10;;;;;;5014154;28;20073;-76
2024/03/27 07:20:57;;;;;;;0.10;0.10;;;15.30;69.20;;;;;;5017051;28;20041;-77
2024/03/27 07:23:24;;;;;;;0.15;0.15;;;15.30;69.30;;;;;;4986330;28;20060;-76
2024/03/27 07:25:49;;;;;;;0.17;0.17;;;15.30;69.00;;;;;;5012837;28;20523;-76
2024/03/27 07:28:15;;;;;;;0.38;0.20;;;15.30;69.20;;;;;;4994234;28;20044;-76
2024/03/27 07:30:40;;;;;;;0.10;0.10;;;15.30;69.50;;;;;;5003515;28;20119;-76
2024/03/27 07:33:06;;;;;;;0.10;0.10;;;15.30;68.80;;;;;;5017295;28;20132;-76
2024/03/27 07:35:32;;;;;;;0.10;0.10;;;15.30;69.00;;;;;;5017639;28;20033;-76
2024/03/27 07:38:00;;;;;;;0.10;0.10;;;15.30;68.80;;;;;;5013567;28;20288;-76
2024/03/27 07:40:26;;;;;;;0.10;0.10;;;15.30;69.00;;;;;;4992544;28;20087;-76
2024/03/27 07:42:53;;;;;;;0.10;0.10;;;15.30;68.60;;;;;;4978799;28;20427;-76
2024/03/27 07:45:18;;;;;;;0.20;0.20;;;15.30;68.80;;;;;;5002946;28;20042;-76
2024/03/27 07:47:44;;;;;;;0.20;0.20;;;15.40;68.80;;;;;;5018967;28;20100;-76
2024/03/27 07:50:10;;;;;;;0.10;0.10;;;15.40;68.90;;;;;;4980565;28;20048;-76
2024/03/27 07:52:36;;;;;;;0.00;0.00;;;15.30;68.90;;;;;;4996989;28;20521;-76
2024/03/27 07:55:02;;;;;;;0.20;0.20;;;15.40;68.70;;;;;;4990784;28;20523;-76
2024/03/27 07:57:27;;;;;;;0.10;0.10;;;15.40;68.80;;;;;;4983417;28;20162;-76
2024/03/27 07:59:53;;;;;;;0.10;0.10;;;15.40;68.60;;;;;;5000235;28;20607;-76
2024/03/27 08:02:19;;;;;;;0.10;0.10;;;15.40;68.60;;;;;;5017378;28;20499;-76
2024/03/27 08:04:44;;;;;;;0.20;0.20;;;15.40;68.70;;;;;;5014811;28;20047;-77
2024/03/27 08:07:10;;;;;;;0.13;0.13;;;15.40;68.60;;;;;;4992449;28;20092;-76
2024/03/27 08:09:36;;;;;;;0.10;0.10;;;15.40;68.70;;;;;;4975228;28;20042;-77
2024/03/27 08:12:02;;;;;;;0.10;0.10;;;15.40;68.60;;;;;;4991403;28;20048;-77
2024/03/27 08:14:27;;;;;;;0.10;0.10;;;15.40;68.90;;;;;;4995635;28;20056;-77
2024/03/27 08:16:53;;;;;;;0.10;0.10;;;15.40;68.80;;;;;;4972965;28;20061;-76
2024/03/27 08:19:19;;;;;;;0.10;0.10;;;15.40;68.70;;;;;;4995917;28;20068;-76
2024/03/27 08:21:44;;;;;;;0.20;0.20;;;15.40;68.80;;;;;;5015773;28;20025;-76
2024/03/27 08:24:10;;;;;;;0.10;0.10;;;15.40;68.80;;;;;;4998943;28;20057;-76
2024/03/27 08:26:35;;;;;;;0.10;0.10;;;15.40;68.70;;;;;;4963011;28;20045;-76
2024/03/27 08:29:01;;;;;;;0.10;0.10;;;15.40;68.70;;;;;;4981820;28;20095;-76
2024/03/27 08:31:27;;;;;;;0.10;0.10;;;15.40;68.70;;;;;;5014679;28;20368;-76
2024/03/27 08:33:52;;;;;;;0.10;0.10;;;15.40;68.70;;;;;;5016881;28;20053;-76
2024/03/27 08:36:20;;;;;;;0.10;0.10;;;15.40;68.80;;;;;;4998309;28;20053;-76
2024/03/27 08:38:45;;;;;;;0.10;0.10;;;15.40;68.80;;;;;;5018017;28;20103;-76
2024/03/27 08:41:11;;;;;;;0.30;0.30;;;15.40;68.90;;;;;;4998462;28;20033;-76
2024/03/27 08:43:36;;;;;;;0.20;0.20;;;15.40;69.00;;;;;;5015819;28;20124;-76
2024/03/27 08:46:04;;;;;;;0.13;0.10;;;15.40;69.00;;;;;;5016004;28;20042;-76
2024/03/27 08:48:30;;;;;;;0.05;0.05;;;15.40;69.30;;;;;;5014916;28;20058;-76
2024/03/27 08:50:55;;;;;;;0.17;0.17;;;15.40;69.20;;;;;;4999330;28;20045;-76
2024/03/27 08:53:21;;;;;;;0.10;0.10;;;15.40;69.20;;;;;;4999648;28;20533;-77
2024/03/27 08:55:48;;;;;;;0.03;0.03;;;15.40;69.40;;;;;;4984721;28;20026;-76
2024/03/27 08:58:13;;;;;;;0.20;0.20;;;15.40;69.40;;;;;;5004243;28;20034;-76
2024/03/27 09:00:39;;;;;;;0.22;0.22;;;15.40;69.40;;;;;;5000325;28;20053;-76
2024/03/27 09:03:06;;;;;;;0.15;0.15;;;15.40;69.30;;;;;;4986967;28;20042;-76
2024/03/27 09:05:31;;;;;;;0.20;0.20;;;15.40;69.60;;;;;;5018470;28;20045;-77
2024/03/27 09:07:57;;;;;;;0.10;0.10;;;15.40;69.80;;;;;;5001830;28;20080;-76
2024/03/27 09:10:24;;;;;;;0.20;0.20;;;15.40;70.00;;;;;;5017415;28;20052;-76
2024/03/27 09:12:50;;;;;;;0.10;0.10;;;15.40;69.90;;;;;;5022609;28;20132;-76
2024/03/27 09:15:15;;;;;;;0.10;0.10;;;15.40;69.90;;;;;;5002253;28;20468;-76
2024/03/27 09:17:41;;;;;;;0.10;0.10;;;15.50;70.00;;;;;;5017738;28;20096;-76
2024/03/27 09:20:08;;;;;;;0.30;0.10;;;15.50;69.80;;;;;;4999739;28;20048;-76
2024/03/27 09:22:33;;;;;;;0.10;0.10;;;15.50;69.80;;;;;;4997447;28;20611;-76
2024/03/27 09:24:59;;;;;;;0.10;0.10;;;15.40;69.70;;;;;;5019221;28;20042;-77
2024/03/27 09:27:25;;;;;;;0.20;0.20;;;15.40;69.90;;;;;;5023801;28;20068;-76
2024/03/27 09:29:54;;;;;;;0.10;0.10;;;15.40;69.50;;;;;;5020553;28;20046;-76
2024/03/27 09:32:20;;;;;;;0.10;0.10;;;15.40;69.60;;;;;;5014076;28;20046;-76
2024/03/27 09:34:46;;;;;;;0.20;0.20;;;15.40;69.90;;;;;;4994245;28;21517;-76
2024/03/27 09:37:12;;;;;;;0.10;0.10;;;15.40;69.60;;;;;;5018875;28;20045;-76
2024/03/27 09:39:38;;;;;;;0.10;0.10;;;15.50;70.10;;;;;;5021414;28;20673;-76
2024/03/27 09:42:04;;;;;;;0.32;0.10;;;15.40;70.80;;;;;;5018479;28;20051;-76
2024/03/27 09:44:30;;;;;;;0.00;0.00;;;15.40;70.70;;;;;;5018053;28;20574;-76
2024/03/27 09:46:59;;;;;;;0.20;0.20;;;15.50;71.00;;;;;;5001426;28;20128;-76
2024/03/27 09:49:28;;;;;;;0.15;0.10;;;15.40;70.50;;;;;;4995847;28;21283;-76
2024/03/27 09:51:56;;;;;;;0.13;0.13;;;15.40;70.50;;;;;;5001728;28;20085;-76
2024/03/27 09:54:22;;;;;;;0.08;0.08;;;15.40;70.60;;;;;;5003188;28;20167;-76
2024/03/27 09:56:48;;;;;;;0.10;0.10;;;15.50;70.90;;;;;;5000207;28;20132;-76
2024/03/27 09:59:13;;;;;;;0.13;0.13;;;15.50;71.10;;;;;;5002331;28;20081;-76
2024/03/27 10:01:41;;;;;;;0.10;0.10;;;15.50;71.20;;;;;;5020341;28;20026;-76
2024/03/27 10:04:07;;;;;;;0.10;0.10;;;15.50;71.40;;;;;;5004005;28;20119;-76
2024/03/27 10:06:33;;;;;;;0.10;0.10;;;15.50;71.30;;;;;;5001920;28;20495;-76
2024/03/27 10:09:00;;;;;;;0.30;0.20;;;15.50;71.30;;;;;;5001413;28;20046;-76
2024/03/27 10:11:25;;;;;;;0.25;0.15;;;15.50;71.50;;;;;;4997261;28;20026;-76
2024/03/27 10:13:51;;;;;;;0.10;0.10;;;15.50;71.20;;;;;;5020169;28;20041;-76
2024/03/27 10:16:17;;;;;;;0.30;0.15;;;15.50;71.00;;;;;;5017761;28;20034;-76
2024/03/27 10:18:43;;;;;;;0.25;0.15;;;15.50;71.00;;;;;;4984796;28;20084;-76
2024/03/27 10:21:08;;;;;;;0.10;0.10;;;15.50;71.30;;;;;;5020213;28;20044;-76
2024/03/27 10:23:34;;;;;;;0.10;0.10;;;15.50;70.90;;;;;;4997940;28;20050;-76
2024/03/27 10:26:03;;;;;;;0.75;0.10;;;15.60;71.30;;;;;;4999691;28;20045;-76
2024/03/27 10:28:34;;;;;;;0.10;0.10;;;15.50;70.90;;;;;;5017069;28;20045;-76
2024/03/27 10:31:02;;;;;;;0.10;0.10;;;15.60;70.70;;;;;;5018058;28;20130;-76
2024/03/27 10:33:28;;;;;;;0.10;0.10;;;15.60;70.70;;;;;;5020298;28;20047;-76
2024/03/27 10:35:53;;;;;;;0.10;0.10;;;15.60;70.60;;;;;;5017776;28;20045;-76
2024/03/27 10:38:19;;;;;;;0.10;0.10;;;15.60;70.40;;;;;;5016242;28;20046;-76
2024/03/27 10:40:47;;;;;;;0.25;0.20;;;15.60;70.50;;;;;;5018038;28;20112;-76
2024/03/27 10:43:18;;;;;;;0.00;0.00;;;15.60;70.30;;;;;;5001272;28;20045;-76
2024/03/27 10:45:44;;;;;;;0.10;0.10;;;15.70;70.20;;;;;;5002314;28;20049;-76
2024/03/27 10:48:09;;;;;;;0.20;0.20;;;15.70;70.10;;;;;;4998825;28;20042;-76
2024/03/27 10:50:36;;;;;;;0.10;0.10;;;15.60;70.20;;;;;;4997249;28;20179;-76
2024/03/27 10:53:01;;;;;;;0.20;0.10;;;15.70;69.90;;;;;;5000339;28;20045;-76
2024/03/27 10:55:27;;;;;;;0.20;0.17;;;15.70;70.00;;;;;;4996798;28;20518;-76
2024/03/27 10:57:54;;;;;;;0.45;0.10;;;15.70;69.90;;;;;;5000952;28;20073;-77
2024/03/27 11:00:20;;;;;;;0.10;0.10;;;15.70;69.90;;;;;;5001099;28;20184;-76
2024/03/27 11:02:52;;;;;;;0.03;0.03;;;15.70;69.50;;;;;;4982385;28;20400;-76
2024/03/27 11:05:18;;;;;;;0.10;0.10;;;15.70;69.70;;;;;;4997936;28;20123;-77
2024/03/27 11:07:44;;;;;;;0.20;0.20;;;15.70;69.50;;;;;;5007918;28;20089;-76
2024/03/27 11:10:20;;;;;;;0.50;0.10;;;15.70;69.60;;;;;;4966337;28;20077;-76
2024/03/27 11:12:48;;;;;;;0.10;0.10;;;15.70;69.40;;;;;;5000733;28;20415;-76
2024/03/27 11:15:16;;;;;;;0.50;0.17;;;15.70;69.40;;;;;;5001044;28;20041;-76
2024/03/27 11:17:54;;;;;;;0.20;0.20;;;15.70;69.20;;;;;;4998477;28;20060;-76
2024/03/27 11:20:25;;;;;;;0.10;0.10;;;15.80;69.20;;;;;;4981765;28;20069;-76
2024/03/27 11:22:55;;;;;;;0.00;0.00;;;15.80;69.00;;;;;;4999798;28;20087;-76
2024/03/27 11:25:24;;;;;;;0.20;0.10;;;15.80;69.00;;;;;;5017032;28;20443;-76
2024/03/27 11:27:50;;;;;;;0.10;0.10;;;15.70;69.10;;;;;;4985485;28;20149;-76
2024/03/27 11:30:21;;;;;;;0.10;0.10;;;15.80;69.60;;;;;;5000691;28;20555;-76
2024/03/27 11:32:47;;;;;;;0.10;0.10;;;15.80;68.70;;;;;;5019000;28;20415;-76
2024/03/27 11:35:18;;;;;;;0.28;0.10;;;15.80;68.70;;;;;;5015924;28;20105;-76
2024/03/27 11:37:43;;;;;;;0.30;0.20;;;15.80;68.60;;;;;;4997586;28;20056;-76
2024/03/27 11:40:09;;;;;;;0.20;0.20;;;15.80;69.40;;;;;;4990999;28;20037;-76
2024/03/27 11:42:38;;;;;;;0.10;0.10;;;15.80;68.60;;;;;;5001334;28;20168;-76
2024/03/27 11:45:04;;;;;;;0.10;0.10;;;15.80;68.30;;;;;;5000505;28;20045;-76
2024/03/27 11:47:30;;;;;;;0.20;0.10;;;15.90;68.20;;;;;;5000282;28;20054;-76
2024/03/27 11:49:56;;;;;;;0.10;0.10;;;15.90;68.20;;;;;;5000835;28;20529;-76
2024/03/27 11:52:22;;;;;;;0.10;0.10;;;15.90;68.40;;;;;;5013989;28;20121;-76
2024/03/27 11:54:47;;;;;;;0.10;0.10;;;15.80;68.30;;;;;;4998855;28;20116;-77
2024/03/27 11:57:13;;;;;;;0.10;0.10;;;15.90;68.70;;;;;;5002415;28;20041;-76
2024/03/27 11:59:38;;;;;;;0.30;0.10;;;15.90;68.40;;;;;;4998021;28;20076;-76
2024/03/27 12:02:04;;;;;;;0.15;0.10;;;15.90;68.20;;;;;;5015017;28;20061;-76
2024/03/27 12:04:30;;;;;;;0.00;0.00;;;15.90;68.00;;;;;;4996805;28;20042;-76
2024/03/27 12:06:56;;;;;;;0.10;0.10;;;15.90;67.90;;;;;;5017325;28;20042;-76
2024/03/27 12:09:21;;;;;;;0.00;0.00;;;15.90;67.80;;;;;;5001942;28;20145;-77
2024/03/27 12:11:47;;;;;;;0.10;0.10;;;15.90;67.60;;;;;;4982583;28;20128;-76
2024/03/27 12:14:17;;;;;;;0.10;0.08;;;16.00;67.50;;;;;;4984024;28;20037;-77
2024/03/27 12:16:43;;;;;;;0.00;0.00;;;16.00;67.30;;;;;;5012994;28;20523;-76
2024/03/27 12:19:09;;;;;;;0.10;0.10;;;16.00;67.40;;;;;;4999387;28;20045;-77
2024/03/27 12:21:34;;;;;;;0.10;0.10;;;16.00;67.80;;;;;;5000023;28;20049;-76
2024/03/27 12:24:00;;;;;;;0.00;0.00;;;16.10;67.70;;;;;;5000104;28;20045;-77
2024/03/27 12:26:26;;;;;;;0.10;0.10;;;16.10;67.60;;;;;;4994018;28;20434;-76
2024/03/27 12:28:52;;;;;;;0.03;0.03;;;16.10;67.60;;;;;;4999083;28;20148;-76
2024/03/27 12:31:21;;;;;;;0.10;0.10;;;16.10;67.60;;;;;;4995883;28;20458;-76
2024/03/27 12:33:47;;;;;;;0.10;0.10;;;16.10;67.60;;;;;;4999242;28;20049;-76
2024/03/27 12:36:13;;;;;;;0.20;0.20;;;16.20;67.70;;;;;;5021281;28;20498;-77
2024/03/27 12:38:39;;;;;;;0.10;0.10;;;16.10;67.60;;;;;;5002555;28;20076;-77
2024/03/27 12:41:05;;;;;;;0.10;0.10;;;16.20;67.50;;;;;;5000380;28;20121;-76